Berwyn, Pennsylvania
Current Conditions -  °F | °C
As of 2:55 PM on Thursday 18 Dec 2014 (Local Time) from KLOM Reporting Station
Scattered Clouds Scattered Clouds  
Wind Chill: 30°   Ceiling: Unl
Heat Index: 37°   Visibility: 10mi
Dew Point: 27°   Wind: 12mph
Humidity: 65%   Direction: 300°WNW
Pressure: 30"   Gusts: 18mph
Location:  40.04°N, 75.44°W
Report Text: KLOM 181955Z AUTO 30010G16KT 270V330 10SM SCT039 03/M03 A3000 RMK AO1
Loading
Personal Weather Stations






























Interactive Weather Map New forecast layout! Learn more

10-Day Weather Forecast

Advertisements
Track Severe Weather on mobile